sensor_id;sensor_type;location;lat;lon;timestamp;pressure;altitude;pressure_sealevel;temperature;humidity
29907;BME280;16776;50.958;10.994;2023-11-21T00:00:40;97825.09;;;6.93;100.00
29907;BME280;16776;50.958;10.994;2023-11-21T00:03:07;97833.66;;;6.91;100.00
29907;BME280;16776;50.958;10.994;2023-11-21T00:05:35;97836.28;;;6.89;100.00
29907;BME280;16776;50.958;10.994;2023-11-21T00:08:01;97836.34;;;6.86;100.00
29907;BME280;16776;50.958;10.994;2023-11-21T00:10:28;97841.50;;;6.85;100.00
29907;BME280;16776;50.958;10.994;2023-11-21T00:12:54;97838.19;;;6.81;100.00
29907;BME280;16776;50.958;10.994;2023-11-21T00:15:21;97834.81;;;6.79;100.00
29907;BME280;16776;50.958;10.994;2023-11-21T00:17:48;97837.44;;;6.78;100.00
29907;BME280;16776;50.958;10.994;2023-11-21T00:20:15;97837.47;;;6.76;100.00
29907;BME280;16776;50.958;10.994;2023-11-21T00:22:42;97834.91;;;6.76;100.00
29907;BME280;16776;50.958;10.994;2023-11-21T00:25:10;97838.34;;;6.74;100.00
29907;BME280;16776;50.958;10.994;2023-11-21T00:27:37;97840.03;;;6.73;100.00
29907;BME280;16776;50.958;10.994;2023-11-21T00:30:05;97846.03;;;6.74;100.00
29907;BME280;16776;50.958;10.994;2023-11-21T00:32:34;97840.03;;;6.73;100.00
29907;BME280;16776;50.958;10.994;2023-11-21T00:35:01;97840.03;;;6.73;100.00
29907;BME280;16776;50.958;10.994;2023-11-21T00:37:28;97838.34;;;6.72;100.00
29907;BME280;16776;50.958;10.994;2023-11-21T00:39:57;97834.09;;;6.74;100.00
29907;BME280;16776;50.958;10.994;2023-11-21T00:42:24;97842.59;;;6.73;100.00
29907;BME280;16776;50.958;10.994;2023-11-21T00:44:51;97840.91;;;6.74;100.00
29907;BME280;16776;50.958;10.994;2023-11-21T00:47:17;97852.84;;;6.75;100.00
29907;BME280;16776;50.958;10.994;2023-11-21T00:49:44;97854.53;;;6.76;100.00
29907;BME280;16776;50.958;10.994;2023-11-21T00:52:10;97857.91;;;6.78;100.00
29907;BME280;16776;50.958;10.994;2023-11-21T00:54:37;97855.34;;;6.78;100.00
29907;BME280;16776;50.958;10.994;2023-11-21T00:57:05;97852.69;;;6.81;100.00
29907;BME280;16776;50.958;10.994;2023-11-21T00:59:31;97849.31;;;6.79;100.00
29907;BME280;16776;50.958;10.994;2023-11-21T01:01:58;97851.84;;;6.80;100.00
29907;BME280;16776;50.958;10.994;2023-11-21T01:04:27;97850.97;;;6.81;100.00
29907;BME280;16776;50.958;10.994;2023-11-21T01:06:53;97851.81;;;6.82;100.00
29907;BME280;16776;50.958;10.994;2023-11-21T01:09:20;97853.44;;;6.84;100.00
29907;BME280;16776;50.958;10.994;2023-11-21T01:11:47;97855.13;;;6.85;100.00
29907;BME280;16776;50.958;10.994;2023-11-21T01:14:15;97862.72;;;6.90;100.00
29907;BME280;16776;50.958;10.994;2023-11-21T01:16:42;97866.16;;;6.89;100.00
29907;BME280;16776;50.958;10.994;2023-11-21T01:19:09;97877.22;;;6.89;100.00
29907;BME280;16776;50.958;10.994;2023-11-21T01:21:36;97867.84;;;6.90;100.00
29907;BME280;16776;50.958;10.994;2023-11-21T01:24:03;97870.34;;;6.91;100.00
29907;BME280;16776;50.958;10.994;2023-11-21T01:26:32;97870.34;;;6.91;100.00
29907;BME280;16776;50.958;10.994;2023-11-21T01:28:59;97883.09;;;6.93;100.00
29907;BME280;16776;50.958;10.994;2023-11-21T01:31:27;97880.53;;;6.94;100.00
29907;BME280;16776;50.958;10.994;2023-11-21T01:33:54;97878.94;;;6.90;100.00
29907;BME280;16776;50.958;10.994;2023-11-21T01:36:21;97883.19;;;6.90;100.00
29907;BME280;16776;50.958;10.994;2023-11-21T01:38:48;97887.47;;;6.89;100.00
29907;BME280;16776;50.958;10.994;2023-11-21T01:41:14;97881.53;;;6.87;100.00
29907;BME280;16776;50.958;10.994;2023-11-21T01:43:41;97876.53;;;6.83;100.00
29907;BME280;16776;50.958;10.994;2023-11-21T01:46:08;97884.94;;;6.88;100.00
29907;BME280;16776;50.958;10.994;2023-11-21T01:48:37;97886.63;;;6.89;100.00
29907;BME280;16776;50.958;10.994;2023-11-21T01:51:03;97883.28;;;6.85;100.00
29907;BME280;16776;50.958;10.994;2023-11-21T01:53:30;97886.72;;;6.84;100.00
29907;BME280;16776;50.958;10.994;2023-11-21T01:55:57;97891.91;;;6.83;100.00
29907;BME280;16776;50.958;10.994;2023-11-21T01:58:25;97891.91;;;6.83;100.00
29907;BME280;16776;50.958;10.994;2023-11-21T02:00:51;97892.75;;;6.82;100.00
29907;BME280;16776;50.958;10.994;2023-11-21T02:03:20;97903.00;;;6.82;100.00
29907;BME280;16776;50.958;10.994;2023-11-21T02:05:48;97899.50;;;6.84;100.00
29907;BME280;16776;50.958;10.994;2023-11-21T02:08:14;97901.28;;;6.82;100.00
29907;BME280;16776;50.958;10.994;2023-11-21T02:10:41;97903.03;;;6.80;100.00
29907;BME280;16776;50.958;10.994;2023-11-21T02:13:07;97906.47;;;6.79;100.00
29907;BME280;16776;50.958;10.994;2023-11-21T02:15:34;97903.06;;;6.79;100.00
29907;BME280;16776;50.958;10.994;2023-11-21T02:18:00;97897.16;;;6.77;100.00
29907;BME280;16776;50.958;10.994;2023-11-21T02:20:28;97899.72;;;6.77;100.00
29907;BME280;16776;50.958;10.994;2023-11-21T02:22:57;97898.84;;;6.78;100.00
29907;BME280;16776;50.958;10.994;2023-11-21T02:25:25;97890.34;;;6.76;100.00
29907;BME280;16776;50.958;10.994;2023-11-21T02:27:53;97896.34;;;6.75;100.00
29907;BME280;16776;50.958;10.994;2023-11-21T02:30:20;97898.91;;;6.75;100.00
29907;BME280;16776;50.958;10.994;2023-11-21T02:32:47;97897.22;;;6.74;100.00
29907;BME280;16776;50.958;10.994;2023-11-21T02:35:13;97904.88;;;6.74;100.00
29907;BME280;16776;50.958;10.994;2023-11-21T02:37:41;97898.91;;;6.75;100.00
29907;BME280;16776;50.958;10.994;2023-11-21T02:40:10;97901.34;;;6.79;100.00
29907;BME280;16776;50.958;10.994;2023-11-21T02:42:39;97898.06;;;6.74;100.00
29907;BME280;16776;50.958;10.994;2023-11-21T02:45:06;97900.63;;;6.74;100.00
29907;BME280;16776;50.958;10.994;2023-11-21T02:47:33;97904.88;;;6.72;100.00
29907;BME280;16776;50.958;10.994;2023-11-21T02:50:00;97903.22;;;6.71;100.00
29907;BME280;16776;50.958;10.994;2023-11-21T02:52:26;97905.78;;;6.71;100.00
29907;BME280;16776;50.958;10.994;2023-11-21T02:54:53;97905.81;;;6.70;100.00
29907;BME280;16776;50.958;10.994;2023-11-21T02:57:21;97892.16;;;6.71;100.00
29907;BME280;16776;50.958;10.994;2023-11-21T02:59:47;97898.16;;;6.68;100.00
29907;BME280;16776;50.958;10.994;2023-11-21T03:02:14;97901.63;;;6.65;100.00
29907;BME280;16776;50.958;10.994;2023-11-21T03:04:41;97895.81;;;6.59;100.00
29907;BME280;16776;50.958;10.994;2023-11-21T03:07:08;97895.09;;;6.52;100.00
29907;BME280;16776;50.958;10.994;2023-11-21T03:09:35;97897.59;;;6.55;100.00
29907;BME280;16776;50.958;10.994;2023-11-21T03:12:02;97901.03;;;6.54;100.00
29907;BME280;16776;50.958;10.994;2023-11-21T03:14:30;97905.31;;;6.54;100.00
29907;BME280;16776;50.958;10.994;2023-11-21T03:16:57;97902.84;;;6.49;100.00
29907;BME280;16776;50.958;10.994;2023-11-21T03:19:23;97910.56;;;6.48;100.00
29907;BME280;16776;50.958;10.994;2023-11-21T03:21:50;97908.03;;;6.46;100.00
29907;BME280;16776;50.958;10.994;2023-11-21T03:24:18;97913.13;;;6.46;100.00
29907;BME280;16776;50.958;10.994;2023-11-21T03:26:45;97913.97;;;6.47;100.00
29907;BME280;16776;50.958;10.994;2023-11-21T03:29:12;97911.47;;;6.45;100.00
29907;BME280;16776;50.958;10.994;2023-11-21T03:31:40;97921.63;;;6.48;100.00
29907;BME280;16776;50.958;10.994;2023-11-21T03:34:15;97913.13;;;6.46;100.00
29907;BME280;16776;50.958;10.994;2023-11-21T03:36:43;97918.34;;;6.43;100.00
29907;BME280;16776;50.958;10.994;2023-11-21T03:39:09;97922.59;;;6.43;100.00
29907;BME280;16776;50.958;10.994;2023-11-21T03:41:36;97926.03;;;6.42;100.00
29907;BME280;16776;50.958;10.994;2023-11-21T03:44:03;97928.63;;;6.40;100.00
29907;BME280;16776;50.958;10.994;2023-11-21T03:46:29;97923.56;;;6.39;100.00
29907;BME280;16776;50.958;10.994;2023-11-21T03:48:57;97925.28;;;6.38;100.00
29907;BME280;16776;50.958;10.994;2023-11-21T03:51:24;97929.59;;;6.35;100.00
29907;BME280;16776;50.958;10.994;2023-11-21T03:53:50;97933.06;;;6.32;100.00
29907;BME280;16776;50.958;10.994;2023-11-21T03:56:17;97931.38;;;6.31;100.00
29907;BME280;16776;50.958;10.994;2023-11-21T03:58:43;97935.69;;;6.29;100.00
29907;BME280;16776;50.958;10.994;2023-11-21T04:01:10;97934.84;;;6.27;100.00
29907;BME280;16776;50.958;10.994;2023-11-21T04:03:36;97934.06;;;6.25;100.00
29907;BME280;16776;50.958;10.994;2023-11-21T04:06:05;97937.47;;;6.25;100.00
29907;BME280;16776;50.958;10.994;2023-11-21T04:08:32;97938.38;;;6.21;100.00
29907;BME280;16776;50.958;10.994;2023-11-21T04:10:59;97940.16;;;6.19;100.00
29907;BME280;16776;50.958;10.994;2023-11-21T04:13:26;97941.03;;;6.18;100.00
29907;BME280;16776;50.958;10.994;2023-11-21T04:15:53;97912.44;;;6.00;100.00
29907;BME280;16776;50.958;10.994;2023-11-21T04:18:20;97943.69;;;6.12;100.00
29907;BME280;16776;50.958;10.994;2023-11-21T04:20:48;97939.44;;;6.11;100.00
29907;BME280;16776;50.958;10.994;2023-11-21T04:23:16;97943.75;;;6.09;100.00
29907;BME280;16776;50.958;10.994;2023-11-21T04:25:43;97942.16;;;6.04;100.00
29907;BME280;16776;50.958;10.994;2023-11-21T04:28:08;97950.72;;;6.01;100.00
29907;BME280;16776;50.958;10.994;2023-11-21T04:30:35;97953.31;;;6.00;100.00
29907;BME280;16776;50.958;10.994;2023-11-21T04:33:01;97950.81;;;5.97;100.00
29907;BME280;16776;50.958;10.994;2023-11-21T04:35:28;97964.44;;;5.96;100.00
29907;BME280;16776;50.958;10.994;2023-11-21T04:37:54;97957.69;;;5.93;100.00
29907;BME280;16776;50.958;10.994;2023-11-21T04:40:23;97956.84;;;5.93;100.00
29907;BME280;16776;50.958;10.994;2023-11-21T04:42:51;97964.63;;;5.88;100.00
29907;BME280;16776;50.958;10.994;2023-11-21T04:45:17;97959.56;;;5.85;100.00
29907;BME280;16776;50.958;10.994;2023-11-21T04:47:44;97963.84;;;5.83;100.00
29907;BME280;16776;50.958;10.994;2023-11-21T04:50:11;97969.03;;;5.80;100.00
29907;BME280;16776;50.958;10.994;2023-11-21T04:52:37;97972.47;;;5.77;100.00
29907;BME280;16776;50.958;10.994;2023-11-21T04:55:04;97975.09;;;5.74;100.00
29907;BME280;16776;50.958;10.994;2023-11-21T04:57:33;97973.41;;;5.73;100.00
29907;BME280;16776;50.958;10.994;2023-11-21T04:59:59;97976.06;;;5.67;100.00
29907;BME280;16776;50.958;10.994;2023-11-21T05:02:26;97979.50;;;5.65;100.00
29907;BME280;16776;50.958;10.994;2023-11-21T05:04:53;97982.13;;;5.62;100.00
29907;BME280;16776;50.958;10.994;2023-11-21T05:07:21;97981.31;;;5.58;100.00
29907;BME280;16776;50.958;10.994;2023-11-21T05:09:48;97983.94;;;5.55;100.00
29907;BME280;16776;50.958;10.994;2023-11-21T05:12:15;97983.13;;;5.52;100.00
29907;BME280;16776;50.958;10.994;2023-11-21T05:14:43;97991.66;;;5.51;100.00
29907;BME280;16776;50.958;10.994;2023-11-21T05:17:09;97994.28;;;5.48;100.00
29907;BME280;16776;50.958;10.994;2023-11-21T05:19:36;97992.63;;;5.43;100.00
29907;BME280;16776;50.958;10.994;2023-11-21T05:22:03;97998.44;;;5.53;100.00
29907;BME280;16776;50.958;10.994;2023-11-21T05:24:30;97994.69;;;5.74;100.00
29907;BME280;16776;50.958;10.994;2023-11-21T05:26:57;97995.84;;;6.02;100.00
29907;BME280;16776;50.958;10.994;2023-11-21T05:29:24;97994.50;;;6.27;100.00
29907;BME280;16776;50.958;10.994;2023-11-21T05:31:52;97990.69;;;6.48;100.00
29907;BME280;16776;50.958;10.994;2023-11-21T05:34:19;97985.41;;;6.56;100.00
29907;BME280;16776;50.958;10.994;2023-11-21T05:36:45;97991.34;;;6.58;100.00
29907;BME280;16776;50.958;10.994;2023-11-21T05:39:13;97983.72;;;6.56;100.00
29907;BME280;16776;50.958;10.994;2023-11-21T05:41:42;97982.16;;;6.49;100.00
29907;BME280;16776;50.958;10.994;2023-11-21T05:44:09;97992.56;;;6.40;100.00
29907;BME280;16776;50.958;10.994;2023-11-21T05:46:35;97990.25;;;6.28;100.00
29907;BME280;16776;50.958;10.994;2023-11-21T05:49:03;98001.53;;;6.18;100.00
29907;BME280;16776;50.958;10.994;2023-11-21T05:51:30;98004.34;;;6.04;100.00
29907;BME280;16776;50.958;10.994;2023-11-21T05:53:56;98010.53;;;5.93;100.00
29907;BME280;16776;50.958;10.994;2023-11-21T05:56:23;98007.28;;;5.83;100.00
29907;BME280;16776;50.958;10.994;2023-11-21T05:58:49;98013.41;;;5.74;100.00
29907;BME280;16776;50.958;10.994;2023-11-21T06:01:16;98016.94;;;5.67;100.00
29907;BME280;16776;50.958;10.994;2023-11-21T06:03:43;98024.66;;;5.63;100.00
29907;BME280;16776;50.958;10.994;2023-11-21T06:06:12;98031.53;;;5.61;100.00
29907;BME280;16776;50.958;10.994;2023-11-21T06:08:38;98039.22;;;5.56;100.00
29907;BME280;16776;50.958;10.994;2023-11-21T06:11:05;98047.78;;;5.55;100.00
29907;BME280;16776;50.958;10.994;2023-11-21T06:13:31;98050.34;;;5.54;100.00
29907;BME280;16776;50.958;10.994;2023-11-21T06:15:58;98056.31;;;5.54;100.00
29907;BME280;16776;50.958;10.994;2023-11-21T06:18:25;98054.63;;;5.53;100.00
29907;BME280;16776;50.958;10.994;2023-11-21T06:20:52;98061.44;;;5.53;100.00
29907;BME280;16776;50.958;10.994;2023-11-21T06:23:20;98061.41;;;5.54;100.00
29907;BME280;16776;50.958;10.994;2023-11-21T06:25:46;98065.69;;;5.52;100.00
29907;BME280;16776;50.958;10.994;2023-11-21T06:28:13;98069.97;;;5.50;100.00
29907;BME280;16776;50.958;10.994;2023-11-21T06:30:42;98069.19;;;5.48;100.00
29907;BME280;16776;50.958;10.994;2023-11-21T06:33:10;98075.16;;;5.47;100.00
29907;BME280;16776;50.958;10.994;2023-11-21T06:35:36;98075.22;;;5.42;100.00
29907;BME280;16776;50.958;10.994;2023-11-21T06:38:03;98079.50;;;5.39;100.00
29907;BME280;16776;50.958;10.994;2023-11-21T06:40:31;98077.03;;;5.36;100.00
29907;BME280;16776;50.958;10.994;2023-11-21T06:42:59;98087.34;;;5.28;100.00
29907;BME280;16776;50.958;10.994;2023-11-21T06:45:26;98083.97;;;5.25;100.00
29907;BME280;16776;50.958;10.994;2023-11-21T06:47:52;98082.34;;;5.21;100.00
29907;BME280;16776;50.958;10.994;2023-11-21T06:50:19;98076.44;;;5.13;100.00
29907;BME280;16776;50.958;10.994;2023-11-21T06:52:46;98085.03;;;5.09;100.00
29907;BME280;16776;50.958;10.994;2023-11-21T06:55:13;98082.50;;;5.05;100.00
29907;BME280;16776;50.958;10.994;2023-11-21T06:57:42;98079.16;;;5.02;100.00
29907;BME280;16776;50.958;10.994;2023-11-21T07:00:11;98088.59;;;4.97;100.00
29907;BME280;16776;50.958;10.994;2023-11-21T07:02:37;98092.03;;;4.93;100.00
29907;BME280;16776;50.958;10.994;2023-11-21T07:05:05;98094.63;;;4.91;100.00
29907;BME280;16776;50.958;10.994;2023-11-21T07:07:32;98091.22;;;4.89;100.00
29907;BME280;16776;50.958;10.994;2023-11-21T07:10:00;98096.34;;;4.88;100.00
29907;BME280;16776;50.958;10.994;2023-11-21T07:12:28;98106.63;;;4.83;100.00
29907;BME280;16776;50.958;10.994;2023-11-21T07:14:56;98108.34;;;4.81;100.00
29907;BME280;16776;50.958;10.994;2023-11-21T07:17:23;98106.69;;;4.76;100.00
29907;BME280;16776;50.958;10.994;2023-11-21T07:19:50;98116.13;;;4.72;100.00
29907;BME280;16776;50.958;10.994;2023-11-21T07:22:16;98115.28;;;4.69;100.00
29907;BME280;16776;50.958;10.994;2023-11-21T07:24:48;98117.84;;;4.67;100.00
29907;BME280;16776;50.958;10.994;2023-11-21T07:27:14;98118.81;;;4.60;100.00
29907;BME280;16776;50.958;10.994;2023-11-21T07:29:41;98117.13;;;4.56;100.00
29907;BME280;16776;50.958;10.994;2023-11-21T07:32:09;98127.31;;;4.56;100.00
29907;BME280;16776;50.958;10.994;2023-11-21T07:34:35;98132.50;;;4.50;100.00
29907;BME280;16776;50.958;10.994;2023-11-21T07:37:05;98135.03;;;4.51;100.00
29907;BME280;16776;50.958;10.994;2023-11-21T07:39:32;98137.59;;;4.50;100.00
29907;BME280;16776;50.958;10.994;2023-11-21T07:41:58;98141.84;;;4.49;100.00
29907;BME280;16776;50.958;10.994;2023-11-21T07:44:25;98145.25;;;4.50;100.00
29907;BME280;16776;50.958;10.994;2023-11-21T07:46:51;98152.09;;;4.46;100.00
29907;BME280;16776;50.958;10.994;2023-11-21T07:49:23;98152.94;;;4.45;100.00
29907;BME280;16776;50.958;10.994;2023-11-21T07:51:49;98154.72;;;4.39;100.00
29907;BME280;16776;50.958;10.994;2023-11-21T07:54:16;98156.41;;;4.37;100.00
29907;BME280;16776;50.958;10.994;2023-11-21T07:56:42;98164.97;;;4.34;100.00
29907;BME280;16776;50.958;10.994;2023-11-21T07:59:10;98170.06;;;4.33;100.00
29907;BME280;16776;50.958;10.994;2023-11-21T08:01:37;98178.56;;;4.32;100.00
29907;BME280;16776;50.958;10.994;2023-11-21T08:04:05;98181.97;;;4.31;100.00
29907;BME280;16776;50.958;10.994;2023-11-21T08:06:33;98175.16;;;4.31;100.00
29907;BME280;16776;50.958;10.994;2023-11-21T08:09:00;98177.72;;;4.31;100.00
29907;BME280;16776;50.958;10.994;2023-11-21T08:11:27;98179.41;;;4.31;100.00
29907;BME280;16776;50.958;10.994;2023-11-21T08:13:54;98176.84;;;4.34;100.00
29907;BME280;16776;50.958;10.994;2023-11-21T08:16:21;98176.81;;;4.37;100.00
29907;BME280;16776;50.958;10.994;2023-11-21T08:18:49;98173.41;;;4.38;100.00
29907;BME280;16776;50.958;10.994;2023-11-21T08:21:16;98168.28;;;4.41;100.00
29907;BME280;16776;50.958;10.994;2023-11-21T08:23:44;98168.25;;;4.44;100.00
29907;BME280;16776;50.958;10.994;2023-11-21T08:26:10;98175.91;;;4.42;100.00
29907;BME280;16776;50.958;10.994;2023-11-21T08:28:37;98178.50;;;4.41;100.00
29907;BME280;16776;50.958;10.994;2023-11-21T08:31:04;98182.75;;;4.39;100.00
29907;BME280;16776;50.958;10.994;2023-11-21T08:33:30;98180.19;;;4.39;100.00
29907;BME280;16776;50.958;10.994;2023-11-21T08:35:57;98181.03;;;4.41;100.00
29907;BME280;16776;50.958;10.994;2023-11-21T08:38:26;98186.94;;;4.43;100.00
29907;BME280;16776;50.958;10.994;2023-11-21T08:40:55;98190.28;;;4.49;100.00
29907;BME280;16776;50.958;10.994;2023-11-21T08:43:22;98188.59;;;4.50;100.00
29907;BME280;16776;50.958;10.994;2023-11-21T08:45:49;98191.13;;;4.53;100.00
29907;BME280;16776;50.958;10.994;2023-11-21T08:48:16;98190.22;;;4.55;100.00
29907;BME280;16776;50.958;10.994;2023-11-21T08:50:42;98194.47;;;4.59;100.00
29907;BME280;16776;50.958;10.994;2023-11-21T08:53:09;98199.50;;;4.64;100.00
29907;BME280;16776;50.958;10.994;2023-11-21T08:55:36;98202.00;;;4.67;100.00
29907;BME280;16776;50.958;10.994;2023-11-21T08:58:04;98204.53;;;4.72;100.00
29907;BME280;16776;50.958;10.994;2023-11-21T09:00:32;98198.59;;;4.71;100.00
29907;BME280;16776;50.958;10.994;2023-11-21T09:02:58;98207.91;;;4.74;100.00
29907;BME280;16776;50.958;10.994;2023-11-21T09:05:25;98206.19;;;4.76;100.00
29907;BME280;16776;50.958;10.994;2023-11-21T09:07:51;98213.84;;;4.77;100.00
29907;BME280;16776;50.958;10.994;2023-11-21T09:10:18;98217.22;;;4.78;100.00
29907;BME280;16776;50.958;10.994;2023-11-21T09:12:46;98218.09;;;4.77;100.00
29907;BME280;16776;50.958;10.994;2023-11-21T09:15:14;98224.03;;;4.77;100.00
29907;BME280;16776;50.958;10.994;2023-11-21T09:17:40;98224.91;;;4.75;100.00
29907;BME280;16776;50.958;10.994;2023-11-21T09:20:08;98230.84;;;4.75;100.00
29907;BME280;16776;50.958;10.994;2023-11-21T09:22:35;98231.69;;;4.76;100.00
29907;BME280;16776;50.958;10.994;2023-11-21T09:25:01;98227.44;;;4.78;100.00
29907;BME280;16776;50.958;10.994;2023-11-21T09:27:30;98233.34;;;4.80;100.00
29907;BME280;16776;50.958;10.994;2023-11-21T09:29:57;98242.69;;;4.82;100.00
29907;BME280;16776;50.958;10.994;2023-11-21T09:32:25;98236.69;;;4.86;100.00
29907;BME280;16776;50.958;10.994;2023-11-21T09:34:51;98238.38;;;4.89;100.00
29907;BME280;16776;50.958;10.994;2023-11-21T09:37:19;98246.88;;;4.91;100.00
29907;BME280;16776;50.958;10.994;2023-11-21T09:39:45;98246.81;;;4.94;100.00
29907;BME280;16776;50.958;10.994;2023-11-21T09:42:15;98248.44;;;5.01;100.00
29907;BME280;16776;50.958;10.994;2023-11-21T09:44:46;98245.88;;;5.02;100.00
29907;BME280;16776;50.958;10.994;2023-11-21T09:47:19;98250.13;;;5.02;100.00
29907;BME280;16776;50.958;10.994;2023-11-21T09:49:48;98256.03;;;5.09;100.00
29907;BME280;16776;50.958;10.994;2023-11-21T09:52:22;98258.50;;;5.15;100.00
29907;BME280;16776;50.958;10.994;2023-11-21T09:54:52;98247.47;;;5.13;100.00
29907;BME280;16776;50.958;10.994;2023-11-21T09:57:19;98245.75;;;5.15;100.00
29907;BME280;16776;50.958;10.994;2023-11-21T09:59:49;98245.75;;;5.18;100.00
29907;BME280;16776;50.958;10.994;2023-11-21T10:02:17;98249.97;;;5.19;100.00
29907;BME280;16776;50.958;10.994;2023-11-21T10:04:47;98253.34;;;5.22;100.00
29907;BME280;16776;50.958;10.994;2023-11-21T10:07:17;98251.66;;;5.23;100.00
29907;BME280;16776;50.958;10.994;2023-11-21T10:09:45;98261.81;;;5.24;100.00
29907;BME280;16776;50.958;10.994;2023-11-21T10:12:15;98254.13;;;5.29;100.00
29907;BME280;16776;50.958;10.994;2023-11-21T10:14:42;98251.59;;;5.27;100.00
29907;BME280;16776;50.958;10.994;2023-11-21T10:17:10;98248.13;;;5.31;100.00
29907;BME280;16776;50.958;10.994;2023-11-21T10:19:38;98256.63;;;5.33;100.00
29907;BME280;16776;50.958;10.994;2023-11-21T10:22:07;98254.91;;;5.37;100.00
29907;BME280;16776;50.958;10.994;2023-11-21T10:24:37;98249.81;;;5.35;100.00
29907;BME280;16776;50.958;10.994;2023-11-21T10:27:04;98250.59;;;5.39;100.00
29907;BME280;16776;50.958;10.994;2023-11-21T10:29:30;98249.72;;;5.41;100.00
29907;BME280;16776;50.958;10.994;2023-11-21T10:32:01;98252.22;;;5.46;100.00
29907;BME280;16776;50.958;10.994;2023-11-21T10:34:28;98252.19;;;5.49;100.00
29907;BME280;16776;50.958;10.994;2023-11-21T10:36:55;98257.22;;;5.54;100.00
29907;BME280;16776;50.958;10.994;2023-11-21T10:39:24;98248.66;;;5.59;100.00
29907;BME280;16776;50.958;10.994;2023-11-21T10:41:56;98257.16;;;5.58;100.00
29907;BME280;16776;50.958;10.994;2023-11-21T10:44:22;98255.44;;;5.62;100.00
29907;BME280;16776;50.958;10.994;2023-11-21T10:46:50;98262.19;;;5.67;100.00
29907;BME280;16776;50.958;10.994;2023-11-21T10:49:17;98251.09;;;5.67;100.00
29907;BME280;16776;50.958;10.994;2023-11-21T10:51:44;98257.81;;;5.74;100.00
29907;BME280;16776;50.958;10.994;2023-11-21T10:54:11;98262.00;;;5.79;100.00
29907;BME280;16776;50.958;10.994;2023-11-21T10:56:40;98259.34;;;5.87;100.00
29907;BME280;16776;50.958;10.994;2023-11-21T10:59:10;98260.16;;;5.91;100.00
29907;BME280;16776;50.958;10.994;2023-11-21T11:01:40;98266.88;;;5.95;100.00
29907;BME280;16776;50.958;10.994;2023-11-21T11:04:08;98273.66;;;5.99;100.00
29907;BME280;16776;50.958;10.994;2023-11-21T11:06:41;98271.88;;;6.05;100.00
29907;BME280;16776;50.958;10.994;2023-11-21T11:09:10;98270.94;;;6.11;100.00
29907;BME280;16776;50.958;10.994;2023-11-21T11:11:40;98272.56;;;6.15;100.00
29907;BME280;16776;50.958;10.994;2023-11-21T11:14:11;98276.78;;;6.19;100.00
29907;BME280;16776;50.958;10.994;2023-11-21T11:16:39;98272.47;;;6.21;100.00
29907;BME280;16776;50.958;10.994;2023-11-21T11:19:06;98273.31;;;6.23;100.00
29907;BME280;16776;50.958;10.994;2023-11-21T11:21:43;98274.91;;;6.32;100.00
29907;BME280;16776;50.958;10.994;2023-11-21T11:24:24;98273.97;;;6.36;100.00
29907;BME280;16776;50.958;10.994;2023-11-21T11:27:02;98265.47;;;6.34;100.00
29907;BME280;16776;50.958;10.994;2023-11-21T11:29:41;98283.25;;;6.41;100.00
29907;BME280;16776;50.958;10.994;2023-11-21T11:32:17;98282.34;;;6.45;100.00
29907;BME280;16776;50.958;10.994;2023-11-21T11:34:52;98283.16;;;6.46;100.00
29907;BME280;16776;50.958;10.994;2023-11-21T11:37:21;98280.63;;;6.46;100.00
29907;BME280;16776;50.958;10.994;2023-11-21T11:39:49;98289.94;;;6.51;100.00
29907;BME280;16776;50.958;10.994;2023-11-21T11:42:18;98291.56;;;6.55;100.00
29907;BME280;16776;50.958;10.994;2023-11-21T11:44:51;98291.47;;;6.61;100.00
29907;BME280;16776;50.958;10.994;2023-11-21T11:47:21;98292.31;;;6.60;100.00
29907;BME280;16776;50.958;10.994;2023-11-21T11:50:03;98291.31;;;6.71;100.00
29907;BME280;16776;50.958;10.994;2023-11-21T11:52:38;98290.50;;;6.69;100.00
29907;BME280;16776;50.958;10.994;2023-11-21T11:55:06;98289.66;;;6.68;100.00
29907;BME280;16776;50.958;10.994;2023-11-21T11:57:37;98299.78;;;6.73;100.00
29907;BME280;16776;50.958;10.994;2023-11-21T12:00:12;98301.41;;;6.80;100.00
29907;BME280;16776;50.958;10.994;2023-11-21T12:02:42;98294.69;;;6.76;100.00
29907;BME280;16776;50.958;10.994;2023-11-21T12:05:10;98297.16;;;6.80;100.00
29907;BME280;16776;50.958;10.994;2023-11-21T12:07:42;98303.03;;;6.85;100.00
29907;BME280;16776;50.958;10.994;2023-11-21T12:10:11;98288.59;;;6.81;100.00
29907;BME280;16776;50.958;10.994;2023-11-21T12:12:43;98304.63;;;6.91;100.00
29907;BME280;16776;50.958;10.994;2023-11-21T12:15:11;98304.63;;;6.91;100.00
29907;BME280;16776;50.958;10.994;2023-11-21T12:17:37;98306.28;;;6.95;100.00
29907;BME280;16776;50.958;10.994;2023-11-21T12:20:05;98308.78;;;6.98;100.00
29907;BME280;16776;50.958;10.994;2023-11-21T12:22:41;98312.16;;;7.01;100.00
29907;BME280;16776;50.958;10.994;2023-11-21T12:25:08;98318.03;;;7.05;100.00
29907;BME280;16776;50.958;10.994;2023-11-21T12:27:35;98318.84;;;7.09;100.00
29907;BME280;16776;50.958;10.994;2023-11-21T12:30:03;98319.63;;;7.12;100.00
29907;BME280;16776;50.958;10.994;2023-11-21T12:32:30;98328.16;;;7.14;100.00
29907;BME280;16776;50.958;10.994;2023-11-21T12:34:57;98326.44;;;7.15;100.00
29907;BME280;16776;50.958;10.994;2023-11-21T12:37:24;98325.50;;;7.17;100.00
29907;BME280;16776;50.958;10.994;2023-11-21T12:39:50;98331.47;;;7.19;100.00
29907;BME280;16776;50.958;10.994;2023-11-21T12:42:19;98332.31;;;7.20;100.00
29907;BME280;16776;50.958;10.994;2023-11-21T12:44:46;98327.16;;;7.21;100.00
29907;BME280;16776;50.958;10.994;2023-11-21T12:47:19;98331.31;;;7.28;100.00
29907;BME280;16776;50.958;10.994;2023-11-21T12:49:46;98324.56;;;7.23;100.00
29907;BME280;16776;50.958;10.994;2023-11-21T12:52:13;98332.22;;;7.24;100.00